sensor_id;sensor_type;location;lat;lon;timestamp;P1;durP1;ratioP1;P2;durP2;ratioP2
35518;SDS011;21627;48.216;16.482;2023-03-02T00:04:43;91.70;;;42.83;;
35518;SDS011;21627;48.216;16.482;2023-03-02T00:07:24;82.70;;;39.57;;
35518;SDS011;21627;48.216;16.482;2023-03-02T00:09:58;87.77;;;42.53;;
35518;SDS011;21627;48.216;16.482;2023-03-02T00:12:26;83.67;;;39.70;;
35518;SDS011;21627;48.216;16.482;2023-03-02T00:14:54;83.67;;;39.80;;
35518;SDS011;21627;48.216;16.482;2023-03-02T00:17:22;87.50;;;41.30;;
35518;SDS011;21627;48.216;16.482;2023-03-02T00:19:53;85.93;;;39.67;;
35518;SDS011;21627;48.216;16.482;2023-03-02T00:22:39;83.00;;;40.10;;
35518;SDS011;21627;48.216;16.482;2023-03-02T00:25:09;80.03;;;40.40;;
35518;SDS011;21627;48.216;16.482;2023-03-02T00:27:39;85.23;;;40.83;;
35518;SDS011;21627;48.216;16.482;2023-03-02T00:30:07;86.37;;;41.97;;
35518;SDS011;21627;48.216;16.482;2023-03-02T00:32:36;89.97;;;41.97;;
35518;SDS011;21627;48.216;16.482;2023-03-02T00:35:03;85.37;;;41.50;;
35518;SDS011;21627;48.216;16.482;2023-03-02T00:37:33;86.37;;;39.47;;
35518;SDS011;21627;48.216;16.482;2023-03-02T00:40:05;81.33;;;41.83;;
35518;SDS011;21627;48.216;16.482;2023-03-02T00:42:38;82.30;;;41.23;;
35518;SDS011;21627;48.216;16.482;2023-03-02T00:45:05;91.37;;;42.27;;
35518;SDS011;21627;48.216;16.482;2023-03-02T00:47:33;87.70;;;41.43;;
35518;SDS011;21627;48.216;16.482;2023-03-02T00:50:03;87.60;;;41.63;;
35518;SDS011;21627;48.216;16.482;2023-03-02T00:52:32;85.20;;;41.10;;
35518;SDS011;21627;48.216;16.482;2023-03-02T00:55:02;82.80;;;41.90;;
35518;SDS011;21627;48.216;16.482;2023-03-02T00:57:30;89.27;;;42.50;;
35518;SDS011;21627;48.216;16.482;2023-03-02T00:59:57;86.97;;;42.00;;
35518;SDS011;21627;48.216;16.482;2023-03-02T01:02:28;102.67;;;44.43;;
35518;SDS011;21627;48.216;16.482;2023-03-02T01:04:55;83.90;;;41.47;;
35518;SDS011;21627;48.216;16.482;2023-03-02T01:07:23;88.60;;;42.33;;
35518;SDS011;21627;48.216;16.482;2023-03-02T01:09:51;87.77;;;42.60;;
35518;SDS011;21627;48.216;16.482;2023-03-02T01:12:18;93.93;;;40.93;;
35518;SDS011;21627;48.216;16.482;2023-03-02T01:14:46;76.13;;;39.70;;
35518;SDS011;21627;48.216;16.482;2023-03-02T01:17:16;89.07;;;42.00;;
35518;SDS011;21627;48.216;16.482;2023-03-02T01:19:43;86.03;;;41.03;;
35518;SDS011;21627;48.216;16.482;2023-03-02T01:22:11;91.03;;;41.03;;
35518;SDS011;21627;48.216;16.482;2023-03-02T01:24:38;85.43;;;43.23;;
35518;SDS011;21627;48.216;16.482;2023-03-02T01:27:05;88.00;;;42.43;;
35518;SDS011;21627;48.216;16.482;2023-03-02T01:29:32;78.63;;;38.80;;
35518;SDS011;21627;48.216;16.482;2023-03-02T01:31:59;91.67;;;42.10;;
35518;SDS011;21627;48.216;16.482;2023-03-02T01:34:27;77.10;;;37.70;;
35518;SDS011;21627;48.216;16.482;2023-03-02T01:36:54;86.10;;;43.10;;
35518;SDS011;21627;48.216;16.482;2023-03-02T01:39:22;84.90;;;42.40;;
35518;SDS011;21627;48.216;16.482;2023-03-02T01:41:49;89.23;;;41.10;;
35518;SDS011;21627;48.216;16.482;2023-03-02T01:47:10;84.10;;;40.97;;
35518;SDS011;21627;48.216;16.482;2023-03-02T01:49:50;79.47;;;38.80;;
35518;SDS011;21627;48.216;16.482;2023-03-02T01:52:27;88.57;;;40.27;;
35518;SDS011;21627;48.216;16.482;2023-03-02T01:55:00;77.77;;;38.07;;
35518;SDS011;21627;48.216;16.482;2023-03-02T01:57:32;75.13;;;37.67;;
35518;SDS011;21627;48.216;16.482;2023-03-02T02:00:13;79.60;;;37.83;;
35518;SDS011;21627;48.216;16.482;2023-03-02T02:02:52;81.93;;;40.00;;
35518;SDS011;21627;48.216;16.482;2023-03-02T02:05:35;81.33;;;37.30;;
35518;SDS011;21627;48.216;16.482;2023-03-02T02:08:07;79.53;;;37.57;;
35518;SDS011;21627;48.216;16.482;2023-03-02T02:10:35;77.87;;;35.93;;
35518;SDS011;21627;48.216;16.482;2023-03-02T02:13:08;82.47;;;38.30;;
35518;SDS011;21627;48.216;16.482;2023-03-02T02:15:37;79.60;;;38.07;;
35518;SDS011;21627;48.216;16.482;2023-03-02T02:18:05;77.77;;;37.57;;
35518;SDS011;21627;48.216;16.482;2023-03-02T02:23:16;70.03;;;34.70;;
35518;SDS011;21627;48.216;16.482;2023-03-02T02:25:59;68.23;;;33.73;;
35518;SDS011;21627;48.216;16.482;2023-03-02T02:28:50;66.07;;;33.87;;
35518;SDS011;21627;48.216;16.482;2023-03-02T02:34:03;70.90;;;35.87;;
35518;SDS011;21627;48.216;16.482;2023-03-02T02:36:37;72.67;;;36.87;;
35518;SDS011;21627;48.216;16.482;2023-03-02T02:39:14;72.90;;;37.00;;
35518;SDS011;21627;48.216;16.482;2023-03-02T02:41:50;71.27;;;34.80;;
35518;SDS011;21627;48.216;16.482;2023-03-02T02:44:20;78.77;;;37.07;;
35518;SDS011;21627;48.216;16.482;2023-03-02T02:46:47;73.83;;;36.50;;
35518;SDS011;21627;48.216;16.482;2023-03-02T02:49:34;71.37;;;35.27;;
35518;SDS011;21627;48.216;16.482;2023-03-02T02:52:04;69.03;;;35.13;;
35518;SDS011;21627;48.216;16.482;2023-03-02T02:54:32;72.70;;;35.53;;
35518;SDS011;21627;48.216;16.482;2023-03-02T02:57:02;66.73;;;35.23;;
35518;SDS011;21627;48.216;16.482;2023-03-02T02:59:31;81.13;;;38.17;;
35518;SDS011;21627;48.216;16.482;2023-03-02T03:02:05;76.03;;;35.60;;
35518;SDS011;21627;48.216;16.482;2023-03-02T03:04:32;78.70;;;36.03;;
35518;SDS011;21627;48.216;16.482;2023-03-02T03:07:04;74.93;;;35.90;;
35518;SDS011;21627;48.216;16.482;2023-03-02T03:09:35;72.63;;;36.03;;
35518;SDS011;21627;48.216;16.482;2023-03-02T03:12:21;68.67;;;34.47;;
35518;SDS011;21627;48.216;16.482;2023-03-02T03:14:51;69.57;;;34.67;;
35518;SDS011;21627;48.216;16.482;2023-03-02T03:17:19;83.63;;;36.37;;
35518;SDS011;21627;48.216;16.482;2023-03-02T03:19:46;70.83;;;35.97;;
35518;SDS011;21627;48.216;16.482;2023-03-02T03:22:14;71.33;;;35.60;;
35518;SDS011;21627;48.216;16.482;2023-03-02T03:24:42;74.10;;;34.13;;
35518;SDS011;21627;48.216;16.482;2023-03-02T03:27:13;77.43;;;35.40;;
35518;SDS011;21627;48.216;16.482;2023-03-02T03:29:42;72.20;;;36.50;;
35518;SDS011;21627;48.216;16.482;2023-03-02T03:32:13;78.57;;;35.67;;
35518;SDS011;21627;48.216;16.482;2023-03-02T03:34:41;76.90;;;35.27;;
35518;SDS011;21627;48.216;16.482;2023-03-02T03:37:09;73.27;;;33.83;;
35518;SDS011;21627;48.216;16.482;2023-03-02T03:39:39;72.47;;;34.07;;
35518;SDS011;21627;48.216;16.482;2023-03-02T03:42:06;68.30;;;32.13;;
35518;SDS011;21627;48.216;16.482;2023-03-02T03:44:34;79.63;;;34.73;;
35518;SDS011;21627;48.216;16.482;2023-03-02T03:47:01;73.30;;;33.57;;
35518;SDS011;21627;48.216;16.482;2023-03-02T03:49:31;61.70;;;31.60;;
35518;SDS011;21627;48.216;16.482;2023-03-02T03:51:59;72.30;;;34.03;;
35518;SDS011;21627;48.216;16.482;2023-03-02T03:54:26;70.87;;;33.20;;
35518;SDS011;21627;48.216;16.482;2023-03-02T03:56:53;71.27;;;33.20;;
35518;SDS011;21627;48.216;16.482;2023-03-02T03:59:22;67.03;;;32.57;;
35518;SDS011;21627;48.216;16.482;2023-03-02T04:01:54;66.03;;;33.03;;
35518;SDS011;21627;48.216;16.482;2023-03-02T04:04:26;71.00;;;35.83;;
35518;SDS011;21627;48.216;16.482;2023-03-02T04:07:00;70.65;;;32.88;;
35518;SDS011;21627;48.216;16.482;2023-03-02T04:09:28;70.67;;;33.73;;
35518;SDS011;21627;48.216;16.482;2023-03-02T04:12:00;67.23;;;32.27;;
35518;SDS011;21627;48.216;16.482;2023-03-02T04:14:28;70.27;;;33.80;;
35518;SDS011;21627;48.216;16.482;2023-03-02T04:16:55;67.83;;;31.87;;
35518;SDS011;21627;48.216;16.482;2023-03-02T04:19:23;69.70;;;32.77;;
35518;SDS011;21627;48.216;16.482;2023-03-02T04:21:52;65.30;;;32.37;;
35518;SDS011;21627;48.216;16.482;2023-03-02T04:24:21;65.83;;;33.03;;
35518;SDS011;21627;48.216;16.482;2023-03-02T04:26:49;68.60;;;32.30;;
35518;SDS011;21627;48.216;16.482;2023-03-02T04:29:17;70.50;;;34.87;;
35518;SDS011;21627;48.216;16.482;2023-03-02T04:31:44;65.20;;;32.00;;
35518;SDS011;21627;48.216;16.482;2023-03-02T04:34:13;71.50;;;34.90;;
35518;SDS011;21627;48.216;16.482;2023-03-02T04:36:41;66.00;;;32.97;;
35518;SDS011;21627;48.216;16.482;2023-03-02T04:39:09;67.70;;;33.23;;
35518;SDS011;21627;48.216;16.482;2023-03-02T04:41:39;68.67;;;32.17;;
35518;SDS011;21627;48.216;16.482;2023-03-02T04:44:12;73.00;;;33.40;;
35518;SDS011;21627;48.216;16.482;2023-03-02T04:46:40;67.40;;;32.00;;
35518;SDS011;21627;48.216;16.482;2023-03-02T04:49:14;71.73;;;32.60;;
35518;SDS011;21627;48.216;16.482;2023-03-02T04:51:44;73.10;;;32.20;;
35518;SDS011;21627;48.216;16.482;2023-03-02T04:54:14;78.50;;;32.83;;
35518;SDS011;21627;48.216;16.482;2023-03-02T04:56:46;71.10;;;33.07;;
35518;SDS011;21627;48.216;16.482;2023-03-02T04:59:18;73.80;;;33.37;;
35518;SDS011;21627;48.216;16.482;2023-03-02T05:01:49;72.57;;;32.77;;
35518;SDS011;21627;48.216;16.482;2023-03-02T05:04:16;71.73;;;32.37;;
35518;SDS011;21627;48.216;16.482;2023-03-02T05:06:47;68.17;;;32.50;;
35518;SDS011;21627;48.216;16.482;2023-03-02T05:09:15;63.53;;;30.63;;
35518;SDS011;21627;48.216;16.482;2023-03-02T05:11:42;71.97;;;32.73;;
35518;SDS011;21627;48.216;16.482;2023-03-02T05:14:10;64.93;;;29.30;;
35518;SDS011;21627;48.216;16.482;2023-03-02T05:16:39;63.50;;;30.17;;
35518;SDS011;21627;48.216;16.482;2023-03-02T05:19:08;69.37;;;30.13;;
35518;SDS011;21627;48.216;16.482;2023-03-02T05:21:39;64.23;;;32.30;;
35518;SDS011;21627;48.216;16.482;2023-03-02T05:24:07;68.20;;;31.90;;
35518;SDS011;21627;48.216;16.482;2023-03-02T05:26:34;68.63;;;31.47;;
35518;SDS011;21627;48.216;16.482;2023-03-02T05:29:02;71.27;;;33.73;;
35518;SDS011;21627;48.216;16.482;2023-03-02T05:34:02;71.33;;;33.00;;
35518;SDS011;21627;48.216;16.482;2023-03-02T05:36:31;75.00;;;33.53;;
35518;SDS011;21627;48.216;16.482;2023-03-02T05:39:00;75.50;;;32.27;;
35518;SDS011;21627;48.216;16.482;2023-03-02T05:41:27;71.27;;;33.53;;
35518;SDS011;21627;48.216;16.482;2023-03-02T05:43:55;69.47;;;31.57;;
35518;SDS011;21627;48.216;16.482;2023-03-02T05:46:22;71.37;;;34.00;;
35518;SDS011;21627;48.216;16.482;2023-03-02T05:48:50;72.93;;;33.47;;
35518;SDS011;21627;48.216;16.482;2023-03-02T05:51:17;76.57;;;35.40;;
35518;SDS011;21627;48.216;16.482;2023-03-02T05:53:44;73.30;;;34.87;;
35518;SDS011;21627;48.216;16.482;2023-03-02T05:56:11;67.93;;;31.87;;
35518;SDS011;21627;48.216;16.482;2023-03-02T05:58:39;72.13;;;33.00;;
35518;SDS011;21627;48.216;16.482;2023-03-02T06:01:07;77.57;;;34.63;;
35518;SDS011;21627;48.216;16.482;2023-03-02T06:03:40;77.90;;;33.90;;
35518;SDS011;21627;48.216;16.482;2023-03-02T06:06:08;86.20;;;37.30;;
35518;SDS011;21627;48.216;16.482;2023-03-02T06:08:40;87.70;;;40.00;;
35518;SDS011;21627;48.216;16.482;2023-03-02T06:11:08;90.23;;;37.97;;
35518;SDS011;21627;48.216;16.482;2023-03-02T06:13:40;81.60;;;38.20;;
35518;SDS011;21627;48.216;16.482;2023-03-02T06:16:07;84.40;;;37.87;;
35518;SDS011;21627;48.216;16.482;2023-03-02T06:18:38;89.97;;;37.17;;
35518;SDS011;21627;48.216;16.482;2023-03-02T06:21:07;86.53;;;38.97;;
35518;SDS011;21627;48.216;16.482;2023-03-02T06:23:34;79.83;;;37.93;;
35518;SDS011;21627;48.216;16.482;2023-03-02T06:26:06;77.37;;;38.80;;
35518;SDS011;21627;48.216;16.482;2023-03-02T06:28:36;83.10;;;38.50;;
35518;SDS011;21627;48.216;16.482;2023-03-02T06:31:17;86.73;;;40.30;;
35518;SDS011;21627;48.216;16.482;2023-03-02T06:33:45;98.63;;;41.97;;
35518;SDS011;21627;48.216;16.482;2023-03-02T06:36:12;87.00;;;37.73;;
35518;SDS011;21627;48.216;16.482;2023-03-02T06:38:40;90.17;;;38.27;;
35518;SDS011;21627;48.216;16.482;2023-03-02T06:41:08;94.83;;;39.30;;
35518;SDS011;21627;48.216;16.482;2023-03-02T06:43:35;88.00;;;38.20;;
35518;SDS011;21627;48.216;16.482;2023-03-02T06:46:02;78.87;;;35.87;;
35518;SDS011;21627;48.216;16.482;2023-03-02T06:48:30;76.47;;;34.70;;
35518;SDS011;21627;48.216;16.482;2023-03-02T06:50:57;78.97;;;36.80;;
35518;SDS011;21627;48.216;16.482;2023-03-02T06:53:25;88.60;;;38.37;;
35518;SDS011;21627;48.216;16.482;2023-03-02T06:55:52;77.50;;;35.43;;
35518;SDS011;21627;48.216;16.482;2023-03-02T06:58:19;72.87;;;35.93;;
35518;SDS011;21627;48.216;16.482;2023-03-02T07:00:46;77.60;;;37.00;;
35518;SDS011;21627;48.216;16.482;2023-03-02T07:03:14;76.90;;;35.77;;
35518;SDS011;21627;48.216;16.482;2023-03-02T07:05:42;86.50;;;36.63;;
35518;SDS011;21627;48.216;16.482;2023-03-02T07:08:11;85.40;;;39.60;;
35518;SDS011;21627;48.216;16.482;2023-03-02T07:10:42;75.23;;;35.93;;
35518;SDS011;21627;48.216;16.482;2023-03-02T07:13:09;83.63;;;37.03;;
35518;SDS011;21627;48.216;16.482;2023-03-02T07:15:39;71.73;;;35.07;;
35518;SDS011;21627;48.216;16.482;2023-03-02T07:18:06;82.87;;;36.63;;
35518;SDS011;21627;48.216;16.482;2023-03-02T07:20:37;78.67;;;36.20;;
35518;SDS011;21627;48.216;16.482;2023-03-02T07:23:05;83.00;;;38.17;;
35518;SDS011;21627;48.216;16.482;2023-03-02T07:25:35;75.70;;;34.57;;
35518;SDS011;21627;48.216;16.482;2023-03-02T07:28:02;72.40;;;33.97;;
35518;SDS011;21627;48.216;16.482;2023-03-02T07:30:30;78.37;;;35.53;;
35518;SDS011;21627;48.216;16.482;2023-03-02T07:33:00;79.87;;;34.67;;
35518;SDS011;21627;48.216;16.482;2023-03-02T07:35:27;78.87;;;34.90;;
35518;SDS011;21627;48.216;16.482;2023-03-02T07:37:54;81.97;;;34.53;;
35518;SDS011;21627;48.216;16.482;2023-03-02T07:40:25;114.00;;;38.77;;
35518;SDS011;21627;48.216;16.482;2023-03-02T07:42:52;81.43;;;36.53;;
35518;SDS011;21627;48.216;16.482;2023-03-02T07:45:19;80.13;;;36.27;;
35518;SDS011;21627;48.216;16.482;2023-03-02T07:47:50;73.13;;;33.87;;
35518;SDS011;21627;48.216;16.482;2023-03-02T07:50:17;80.27;;;35.50;;
35518;SDS011;21627;48.216;16.482;2023-03-02T07:52:48;73.30;;;34.53;;
35518;SDS011;21627;48.216;16.482;2023-03-02T07:55:15;79.13;;;35.50;;
35518;SDS011;21627;48.216;16.482;2023-03-02T07:57:45;75.63;;;34.67;;
35518;SDS011;21627;48.216;16.482;2023-03-02T08:00:13;76.93;;;35.93;;
35518;SDS011;21627;48.216;16.482;2023-03-02T08:02:41;81.47;;;37.13;;
35518;SDS011;21627;48.216;16.482;2023-03-02T08:05:09;84.20;;;37.23;;
35518;SDS011;21627;48.216;16.482;2023-03-02T08:07:37;72.37;;;35.20;;
35518;SDS011;21627;48.216;16.482;2023-03-02T08:10:06;78.13;;;35.57;;
35518;SDS011;21627;48.216;16.482;2023-03-02T08:12:34;78.80;;;36.80;;
35518;SDS011;21627;48.216;16.482;2023-03-02T08:15:01;76.20;;;36.03;;
35518;SDS011;21627;48.216;16.482;2023-03-02T08:17:30;77.03;;;35.00;;
35518;SDS011;21627;48.216;16.482;2023-03-02T08:19:57;83.37;;;36.40;;
35518;SDS011;21627;48.216;16.482;2023-03-02T08:22:25;73.37;;;35.73;;
35518;SDS011;21627;48.216;16.482;2023-03-02T08:24:55;84.23;;;35.90;;
35518;SDS011;21627;48.216;16.482;2023-03-02T08:27:22;79.17;;;35.27;;
35518;SDS011;21627;48.216;16.482;2023-03-02T08:29:50;73.17;;;38.20;;
35518;SDS011;21627;48.216;16.482;2023-03-02T08:32:19;78.93;;;37.67;;
35518;SDS011;21627;48.216;16.482;2023-03-02T08:34:47;76.38;;;35.83;;
35518;SDS011;21627;48.216;16.482;2023-03-02T08:37:20;73.27;;;35.33;;
35518;SDS011;21627;48.216;16.482;2023-03-02T08:39:47;72.67;;;35.70;;
35518;SDS011;21627;48.216;16.482;2023-03-02T08:42:17;80.47;;;36.75;;
35518;SDS011;21627;48.216;16.482;2023-03-02T08:44:45;80.87;;;37.63;;
35518;SDS011;21627;48.216;16.482;2023-03-02T08:47:12;83.27;;;38.53;;
35518;SDS011;21627;48.216;16.482;2023-03-02T08:49:41;80.33;;;37.93;;
35518;SDS011;21627;48.216;16.482;2023-03-02T08:52:10;85.90;;;37.55;;
35518;SDS011;21627;48.216;16.482;2023-03-02T08:54:40;82.00;;;37.08;;
35518;SDS011;21627;48.216;16.482;2023-03-02T08:57:09;77.75;;;36.20;;
35518;SDS011;21627;48.216;16.482;2023-03-02T08:59:37;76.95;;;37.30;;
35518;SDS011;21627;48.216;16.482;2023-03-02T09:02:05;72.75;;;36.75;;
35518;SDS011;21627;48.216;16.482;2023-03-02T09:04:36;74.72;;;37.83;;
35518;SDS011;21627;48.216;16.482;2023-03-02T09:07:07;81.22;;;38.78;;
35518;SDS011;21627;48.216;16.482;2023-03-02T09:09:38;64.45;;;33.90;;
35518;SDS011;21627;48.216;16.482;2023-03-02T09:12:08;79.18;;;37.10;;
35518;SDS011;21627;48.216;16.482;2023-03-02T09:14:36;74.80;;;37.03;;
35518;SDS011;21627;48.216;16.482;2023-03-02T09:17:03;76.95;;;36.67;;
35518;SDS011;21627;48.216;16.482;2023-03-02T09:19:31;74.63;;;35.72;;
35518;SDS011;21627;48.216;16.482;2023-03-02T09:22:09;74.82;;;36.83;;
35518;SDS011;21627;48.216;16.482;2023-03-02T09:24:37;75.88;;;36.97;;
35518;SDS011;21627;48.216;16.482;2023-03-02T09:27:04;81.40;;;36.47;;
35518;SDS011;21627;48.216;16.482;2023-03-02T09:29:31;77.55;;;37.63;;
35518;SDS011;21627;48.216;16.482;2023-03-02T09:31:58;76.82;;;36.42;;
35518;SDS011;21627;48.216;16.482;2023-03-02T09:34:29;70.80;;;35.63;;
35518;SDS011;21627;48.216;16.482;2023-03-02T09:36:56;79.80;;;37.15;;
35518;SDS011;21627;48.216;16.482;2023-03-02T09:39:23;71.32;;;37.65;;
35518;SDS011;21627;48.216;16.482;2023-03-02T09:44:45;79.10;;;37.65;;
35518;SDS011;21627;48.216;16.482;2023-03-02T09:47:52;71.47;;;36.00;;
35518;SDS011;21627;48.216;16.482;2023-03-02T09:54:06;65.15;;;32.33;;
35518;SDS011;21627;48.216;16.482;2023-03-02T09:56:51;61.75;;;33.83;;
35518;SDS011;21627;48.216;16.482;2023-03-02T10:02:24;72.50;;;34.37;;
35518;SDS011;21627;48.216;16.482;2023-03-02T10:05:23;66.93;;;33.08;;
35518;SDS011;21627;48.216;16.482;2023-03-02T10:07:58;53.78;;;29.50;;
35518;SDS011;21627;48.216;16.482;2023-03-02T10:13:58;63.38;;;33.45;;
35518;SDS011;21627;48.216;16.482;2023-03-02T10:19:36;59.47;;;32.42;;
35518;SDS011;21627;48.216;16.482;2023-03-02T10:22:12;58.67;;;30.75;;
35518;SDS011;21627;48.216;16.482;2023-03-02T10:24:57;59.65;;;31.90;;
35518;SDS011;21627;48.216;16.482;2023-03-02T10:27:54;60.40;;;31.40;;
35518;SDS011;21627;48.216;16.482;2023-03-02T10:30:34;63.85;;;33.17;;
35518;SDS011;21627;48.216;16.482;2023-03-02T10:33:09;59.85;;;30.58;;
35518;SDS011;21627;48.216;16.482;2023-03-02T10:35:47;59.35;;;29.98;;
35518;SDS011;21627;48.216;16.482;2023-03-02T10:38:22;65.22;;;33.22;;
35518;SDS011;21627;48.216;16.482;2023-03-02T10:40:51;58.58;;;31.83;;
35518;SDS011;21627;48.216;16.482;2023-03-02T10:43:29;67.40;;;32.40;;
35518;SDS011;21627;48.216;16.482;2023-03-02T10:46:18;62.00;;;29.73;;
35518;SDS011;21627;48.216;16.482;2023-03-02T10:48:46;55.83;;;28.25;;
35518;SDS011;21627;48.216;16.482;2023-03-02T10:51:30;50.95;;;27.77;;
35518;SDS011;21627;48.216;16.482;2023-03-02T10:54:04;56.95;;;27.60;;
35518;SDS011;21627;48.216;16.482;2023-03-02T10:56:42;54.85;;;28.33;;
35518;SDS011;21627;48.216;16.482;2023-03-02T11:02:18;57.83;;;29.45;;
35518;SDS011;21627;48.216;16.482;2023-03-02T11:04:53;53.97;;;27.52;;
35518;SDS011;21627;48.216;16.482;2023-03-02T11:07:25;57.97;;;29.48;;
35518;SDS011;21627;48.216;16.482;2023-03-02T11:10:05;51.70;;;27.90;;
35518;SDS011;21627;48.216;16.482;2023-03-02T11:12:45;54.28;;;26.40;;
35518;SDS011;21627;48.216;16.482;2023-03-02T11:17:59;48.78;;;26.80;;
35518;SDS011;21627;48.216;16.482;2023-03-02T11:20:49;52.95;;;26.20;;
35518;SDS011;21627;48.216;16.482;2023-03-02T11:23:25;48.00;;;25.83;;
35518;SDS011;21627;48.216;16.482;2023-03-02T11:26:13;45.05;;;25.80;;
35518;SDS011;21627;48.216;16.482;2023-03-02T11:31:41;45.17;;;23.90;;
35518;SDS011;21627;48.216;16.482;2023-03-02T11:42:41;53.50;;;24.73;;
35518;SDS011;21627;48.216;16.482;2023-03-02T11:53:32;45.33;;;25.55;;
35518;SDS011;21627;48.216;16.482;2023-03-02T11:58:55;46.72;;;25.58;;
35518;SDS011;21627;48.216;16.482;2023-03-02T12:01:27;45.10;;;24.10;;
35518;SDS011;21627;48.216;16.482;2023-03-02T12:04:08;42.58;;;23.17;;
35518;SDS011;21627;48.216;16.482;2023-03-02T12:07:01;46.90;;;23.52;;
35518;SDS011;21627;48.216;16.482;2023-03-02T12:10:07;39.55;;;20.95;;
35518;SDS011;21627;48.216;16.482;2023-03-02T12:12:57;40.38;;;23.58;;
35518;SDS011;21627;48.216;16.482;2023-03-02T12:15:47;40.45;;;22.65;;
35518;SDS011;21627;48.216;16.482;2023-03-02T12:23:52;39.63;;;22.95;;
35518;SDS011;21627;48.216;16.482;2023-03-02T12:26:28;34.80;;;20.25;;
35518;SDS011;21627;48.216;16.482;2023-03-02T12:31:49;39.33;;;20.75;;
35518;SDS011;21627;48.216;16.482;2023-03-02T12:34:27;42.30;;;21.90;;
35518;SDS011;21627;48.216;16.482;2023-03-02T12:37:22;39.45;;;19.73;;
35518;SDS011;21627;48.216;16.482;2023-03-02T12:43:29;32.97;;;18.40;;
35518;SDS011;21627;48.216;16.482;2023-03-02T12:51:57;35.88;;;18.88;;
35518;SDS011;21627;48.216;16.482;2023-03-02T12:54:31;33.33;;;18.30;;
35518;SDS011;21627;48.216;16.482;2023-03-02T12:57:11;37.17;;;19.13;;
35518;SDS011;21627;48.216;16.482;2023-03-02T12:59:51;37.53;;;20.73;;
35518;SDS011;21627;48.216;16.482;2023-03-02T13:02:34;32.03;;;18.65;;
35518;SDS011;21627;48.216;16.482;2023-03-02T13:05:03;33.33;;;18.25;;
35518;SDS011;21627;48.216;16.482;2023-03-02T13:07:41;36.33;;;19.00;;
35518;SDS011;21627;48.216;16.482;2023-03-02T13:10:28;33.45;;;19.40;;
35518;SDS011;21627;48.216;16.482;2023-03-02T13:18:52;31.80;;;18.38;;
35518;SDS011;21627;48.216;16.482;2023-03-02T13:21:41;35.75;;;19.60;;
35518;SDS011;21627;48.216;16.482;2023-03-02T13:27:18;38.67;;;18.92;;
35518;SDS011;21627;48.216;16.482;2023-03-02T13:29:49;31.42;;;17.05;;
35518;SDS011;21627;48.216;16.482;2023-03-02T13:32:19;28.83;;;17.33;;
35518;SDS011;21627;48.216;16.482;2023-03-02T13:34:54;33.37;;;18.73;;
35518;SDS011;21627;48.216;16.482;2023-03-02T13:40:07;33.88;;;18.17;;
35518;SDS011;21627;48.216;16.482;2023-03-02T13:42:53;34.25;;;19.20;;
35518;SDS011;21627;48.216;16.482;2023-03-02T13:45:27;34.13;;;19.73;;
35518;SDS011;21627;48.216;16.482;2023-03-02T13:47:59;35.95;;;19.52;;
35518;SDS011;21627;48.216;16.482;2023-03-02T13:50:48;32.72;;;19.38;;
35518;SDS011;21627;48.216;16.482;2023-03-02T13:53:41;35.95;;;19.27;;
35518;SDS011;21627;48.216;16.482;2023-03-02T13:56:23;32.65;;;18.48;;
35518;SDS011;21627;48.216;16.482;2023-03-02T13:59:03;35.05;;;17.73;;
35518;SDS011;21627;48.216;16.482;2023-03-02T14:01:38;34.47;;;18.65;;
35518;SDS011;21627;48.216;16.482;2023-03-02T14:04:13;31.27;;;18.80;;
35518;SDS011;21627;48.216;16.482;2023-03-02T14:06:44;34.17;;;18.27;;
35518;SDS011;21627;48.216;16.482;2023-03-02T14:09:14;29.20;;;17.00;;
35518;SDS011;21627;48.216;16.482;2023-03-02T14:11:43;33.42;;;17.42;;
35518;SDS011;21627;48.216;16.482;2023-03-02T14:14:18;32.95;;;17.02;;
35518;SDS011;21627;48.216;16.482;2023-03-02T14:16:49;25.55;;;16.10;;
35518;SDS011;21627;48.216;16.482;2023-03-02T14:19:17;29.67;;;16.65;;
35518;SDS011;21627;48.216;16.482;2023-03-02T14:21:45;29.35;;;15.93;;
35518;SDS011;21627;48.216;16.482;2023-03-02T14:24:13;29.55;;;16.02;;
35518;SDS011;21627;48.216;16.482;2023-03-02T14:26:45;27.00;;;14.25;;
35518;SDS011;21627;48.216;16.482;2023-03-02T14:31:54;37.35;;;15.00;;
35518;SDS011;21627;48.216;16.482;2023-03-02T14:34:34;24.83;;;14.98;;
35518;SDS011;21627;48.216;16.482;2023-03-02T14:37:14;26.67;;;13.55;;
35518;SDS011;21627;48.216;16.482;2023-03-02T14:39:46;25.25;;;14.73;;
35518;SDS011;21627;48.216;16.482;2023-03-02T14:42:21;22.48;;;15.32;;
35518;SDS011;21627;48.216;16.482;2023-03-02T14:44:49;34.65;;;15.32;;
35518;SDS011;21627;48.216;16.482;2023-03-02T14:47:17;27.45;;;14.52;;
35518;SDS011;21627;48.216;16.482;2023-03-02T14:49:45;28.88;;;16.20;;
35518;SDS011;21627;48.216;16.482;2023-03-02T14:52:36;24.75;;;13.73;;
35518;SDS011;21627;48.216;16.482;2023-03-02T14:55:23;28.20;;;14.57;;
35518;SDS011;21627;48.216;16.482;2023-03-02T14:57:53;28.63;;;14.40;;
35518;SDS011;21627;48.216;16.482;2023-03-02T15:00:33;24.38;;;14.00;;
35518;SDS011;21627;48.216;16.482;2023-03-02T15:03:00;23.42;;;13.70;;
35518;SDS011;21627;48.216;16.482;2023-03-02T15:05:30;26.58;;;13.55;;
35518;SDS011;21627;48.216;16.482;2023-03-02T15:07:58;27.23;;;13.77;;
35518;SDS011;21627;48.216;16.482;2023-03-02T15:10:25;26.33;;;14.02;;
35518;SDS011;21627;48.216;16.482;2023-03-02T15:12:52;27.30;;;14.27;;
35518;SDS011;21627;48.216;16.482;2023-03-02T15:15:26;20.00;;;12.27;;
35518;SDS011;21627;48.216;16.482;2023-03-02T15:17:56;23.35;;;14.10;;
35518;SDS011;21627;48.216;16.482;2023-03-02T15:20:23;23.65;;;14.02;;
35518;SDS011;21627;48.216;16.482;2023-03-02T15:22:51;31.85;;;14.52;;
35518;SDS011;21627;48.216;16.482;2023-03-02T15:25:22;24.77;;;14.73;;
35518;SDS011;21627;48.216;16.482;2023-03-02T15:27:51;24.33;;;13.75;;
35518;SDS011;21627;48.216;16.482;2023-03-02T15:30:21;22.30;;;13.75;;
35518;SDS011;21627;48.216;16.482;2023-03-02T15:32:50;24.70;;;14.23;;
35518;SDS011;21627;48.216;16.482;2023-03-02T15:35:18;27.00;;;14.32;;
35518;SDS011;21627;48.216;16.482;2023-03-02T15:37:46;27.27;;;14.07;;
35518;SDS011;21627;48.216;16.482;2023-03-02T15:40:13;26.58;;;14.63;;
35518;SDS011;21627;48.216;16.482;2023-03-02T15:42:40;25.92;;;14.90;;
35518;SDS011;21627;48.216;16.482;2023-03-02T15:45:10;25.73;;;13.00;;
35518;SDS011;21627;48.216;16.482;2023-03-02T15:47:37;29.05;;;13.82;;
35518;SDS011;21627;48.216;16.482;2023-03-02T15:50:05;24.73;;;12.43;;
35518;SDS011;21627;48.216;16.482;2023-03-02T15:52:33;25.95;;;14.52;;
35518;SDS011;21627;48.216;16.482;2023-03-02T15:55:00;31.88;;;13.68;;
35518;SDS011;21627;48.216;16.482;2023-03-02T15:57:27;29.73;;;14.52;;
35518;SDS011;21627;48.216;16.482;2023-03-02T15:59:55;27.38;;;14.27;;
35518;SDS011;21627;48.216;16.482;2023-03-02T16:02:22;24.30;;;14.43;;
35518;SDS011;21627;48.216;16.482;2023-03-02T16:04:49;33.33;;;13.75;;